createdAt,value
2023-01-21T00:01:12.421Z,85.37
2023-01-21T00:03:39.562Z,85.36
2023-01-21T00:06:14.012Z,85.48
2023-01-21T00:08:41.336Z,85.33
2023-01-21T00:11:09.960Z,85.31
2023-01-21T00:13:37.265Z,85.48
2023-01-21T00:16:04.989Z,85.53
2023-01-21T00:18:32.375Z,85.51
2023-01-21T00:20:59.344Z,85.38
2023-01-21T00:23:26.087Z,85.64
2023-01-21T00:26:04.105Z,85.44
2023-01-21T00:28:34.379Z,85.44
2023-01-21T00:31:02.706Z,85.72
2023-01-21T00:33:30.743Z,85.73
2023-01-21T00:36:02.445Z,85.79
2023-01-21T00:38:29.536Z,85.75
2023-01-21T00:41:10.805Z,85.73
2023-01-21T00:43:41.373Z,85.85
2023-01-21T00:46:08.539Z,85.94
2023-01-21T00:48:35.336Z,86.05
2023-01-21T00:51:03.002Z,86.05
2023-01-21T00:53:38.173Z,85.82
2023-01-21T00:56:09.279Z,85.78
2023-01-21T00:58:47.081Z,86.00
2023-01-21T01:01:19.515Z,86.11
2023-01-21T01:03:47.343Z,85.94
2023-01-21T01:06:16.795Z,85.87
2023-01-21T01:08:44.721Z,85.95
2023-01-21T01:11:12.126Z,86.00
2023-01-21T01:13:38.989Z,86.03
2023-01-21T01:16:06.292Z,86.00
2023-01-21T01:18:34.719Z,85.98
2023-01-21T01:21:12.847Z,85.82
2023-01-21T01:23:39.680Z,85.84
2023-01-21T01:26:07.973Z,85.73
2023-01-21T01:28:34.680Z,85.75
2023-01-21T01:31:04.181Z,85.61
2023-01-21T01:33:30.915Z,85.61
2023-01-21T01:36:02.399Z,85.76
2023-01-21T01:38:29.200Z,85.59
2023-01-21T01:40:56.150Z,85.57
2023-01-21T01:43:47.849Z,85.35
2023-01-21T01:46:15.117Z,85.26
2023-01-21T01:48:43.799Z,85.17
2023-01-21T01:51:11.666Z,85.22
2023-01-21T01:53:40.752Z,85.09
2023-01-21T01:56:07.772Z,85.14
2023-01-21T01:58:34.631Z,84.96
2023-01-21T02:01:01.509Z,84.82
2023-01-21T02:03:44.974Z,84.87
2023-01-21T02:06:16.379Z,84.94
2023-01-21T02:08:44.835Z,84.78
2023-01-21T02:11:17.780Z,84.76
2023-01-21T02:13:53.357Z,84.88
2023-01-21T02:16:45.787Z,84.63
2023-01-21T02:19:34.123Z,84.48
2023-01-21T02:22:08.124Z,84.64
2023-01-21T02:24:47.068Z,84.66
2023-01-21T02:27:39.706Z,84.52
2023-01-21T02:30:47.200Z,84.51
2023-01-21T02:33:32.109Z,84.28
2023-01-21T02:36:10.347Z,84.27
2023-01-21T02:38:46.067Z,84.22
2023-01-21T02:41:35.610Z,84.30
2023-01-21T02:44:12.137Z,84.32
2023-01-21T02:46:46.154Z,84.24
2023-01-21T02:49:24.261Z,84.22
2023-01-21T02:51:51.097Z,83.82
2023-01-21T02:54:39.837Z,83.76
2023-01-21T02:57:08.296Z,83.62
2023-01-21T02:59:36.696Z,83.74
2023-01-21T03:02:10.614Z,83.54
2023-01-21T03:05:14.713Z,83.29
2023-01-21T03:08:13.234Z,83.43
2023-01-21T03:10:50.814Z,83.50
2023-01-21T03:13:45.300Z,83.46
2023-01-21T03:16:32.325Z,83.32
2023-01-21T03:19:02.483Z,83.20
2023-01-21T03:21:30.800Z,83.32
2023-01-21T03:23:58.884Z,83.22
2023-01-21T03:26:33.902Z,83.20
2023-01-21T03:29:05.555Z,83.38
2023-01-21T03:31:34.043Z,83.35
2023-01-21T03:34:04.273Z,83.39
2023-01-21T03:36:54.090Z,83.22
2023-01-21T03:39:34.849Z,82.99
2023-01-21T03:42:01.810Z,83.08
2023-01-21T03:44:28.535Z,83.07
2023-01-21T03:47:19.698Z,83.21
2023-01-21T03:50:00.868Z,83.07
2023-01-21T03:52:27.894Z,82.92
2023-01-21T03:54:54.594Z,82.94
2023-01-21T03:57:21.479Z,82.84
2023-01-21T03:59:48.530Z,83.16
2023-01-21T04:02:20.375Z,83.02
2023-01-21T04:04:47.644Z,83.14
2023-01-21T04:07:15.594Z,83.00
2023-01-21T04:09:42.376Z,83.18
2023-01-21T04:12:09.223Z,83.05
2023-01-21T04:14:36.122Z,83.26
2023-01-21T04:17:03.183Z,83.25
2023-01-21T04:19:29.873Z,83.07
2023-01-21T04:21:56.599Z,83.38
2023-01-21T04:24:23.315Z,83.40
2023-01-21T04:26:50.040Z,83.64
2023-01-21T04:29:17.435Z,83.43
2023-01-21T04:31:44.516Z,83.46
2023-01-21T04:34:11.336Z,83.39
2023-01-21T04:36:38.049Z,83.53
2023-01-21T04:39:05.018Z,83.64
2023-01-21T04:41:31.744Z,83.51
2023-01-21T04:43:58.446Z,83.82
2023-01-21T04:46:25.219Z,83.68
2023-01-21T04:48:52.288Z,83.62
2023-01-21T04:51:19.045Z,83.61
2023-01-21T04:53:45.792Z,83.65
2023-01-21T04:56:12.674Z,83.84
2023-01-21T04:58:39.469Z,83.70
2023-01-21T05:01:06.360Z,83.90
2023-01-21T05:03:33.150Z,83.82
2023-01-21T05:05:59.866Z,83.72
2023-01-21T05:08:26.586Z,83.78
2023-01-21T05:10:53.327Z,83.82
2023-01-21T05:13:20.108Z,84.07
2023-01-21T05:15:46.783Z,84.12
2023-01-21T05:18:13.595Z,83.95
2023-01-21T05:20:40.289Z,83.99
2023-01-21T05:23:07.028Z,84.00
2023-01-21T05:25:33.737Z,84.08
2023-01-21T05:28:00.507Z,83.80
2023-01-21T05:30:27.233Z,83.82
2023-01-21T05:32:54.917Z,83.88
2023-01-21T05:35:23.611Z,84.07
2023-01-21T05:37:50.883Z,84.09
2023-01-21T05:40:18.370Z,83.95
2023-01-21T05:42:46.070Z,84.23
2023-01-21T05:45:15.945Z,83.94
2023-01-21T05:47:43.243Z,84.35
2023-01-21T05:50:11.154Z,84.04
2023-01-21T05:52:37.966Z,84.17
2023-01-21T05:55:05.194Z,84.09
2023-01-21T05:57:32.309Z,84.42
2023-01-21T05:59:59.274Z,84.41
2023-01-21T06:02:26.135Z,84.19
2023-01-21T06:04:53.024Z,84.38
2023-01-21T06:07:19.823Z,84.43
2023-01-21T06:09:46.562Z,84.57
2023-01-21T06:12:13.254Z,84.77
2023-01-21T06:14:39.988Z,84.74
2023-01-21T06:17:06.829Z,84.53
2023-01-21T06:19:33.576Z,84.67
2023-01-21T06:22:00.424Z,84.68
2023-01-21T06:24:27.230Z,84.74
2023-01-21T06:26:54.047Z,85.00
2023-01-21T06:29:20.736Z,85.14
2023-01-21T06:31:47.631Z,85.03
2023-01-21T06:34:14.426Z,85.32
2023-01-21T06:36:42.790Z,85.24
2023-01-21T06:39:12.452Z,85.06
2023-01-21T06:41:40.283Z,85.25
2023-01-21T06:44:07.327Z,85.42
2023-01-21T06:46:34.410Z,85.18
2023-01-21T06:49:01.120Z,85.46
2023-01-21T06:51:27.873Z,85.37
2023-01-21T06:53:54.698Z,85.30
2023-01-21T06:56:22.132Z,85.34
2023-01-21T06:58:49.107Z,85.24
2023-01-21T07:01:15.892Z,85.32
2023-01-21T07:03:42.708Z,85.33
2023-01-21T07:06:09.435Z,85.38
2023-01-21T07:08:36.132Z,85.27
2023-01-21T07:11:02.875Z,85.43
2023-01-21T07:13:29.689Z,85.29
2023-01-21T07:16:04.079Z,85.14
2023-01-21T07:18:32.655Z,85.39
2023-01-21T07:21:00.671Z,85.13
2023-01-21T07:23:27.381Z,85.32
2023-01-21T07:25:54.112Z,85.33
2023-01-21T07:28:20.787Z,84.92
2023-01-21T07:30:51.473Z,84.98
2023-01-21T07:33:18.237Z,85.11
2023-01-21T07:35:44.964Z,85.17
2023-01-21T07:38:11.759Z,84.92
2023-01-21T07:40:38.437Z,85.22
2023-01-21T07:43:05.185Z,85.00
2023-01-21T07:45:34.357Z,84.97
2023-01-21T07:48:01.356Z,85.04
2023-01-21T07:50:28.088Z,84.95
2023-01-21T07:52:54.976Z,84.63
2023-01-21T07:55:22.198Z,84.78
2023-01-21T07:57:48.908Z,84.69
2023-01-21T08:00:16.082Z,84.75
2023-01-21T08:02:42.998Z,84.80
2023-01-21T08:05:10.269Z,84.83
2023-01-21T08:07:37.308Z,84.65
2023-01-21T08:10:04.249Z,84.72
2023-01-21T08:12:30.952Z,84.71
2023-01-21T08:14:57.756Z,84.83
2023-01-21T08:17:24.715Z,84.63
2023-01-21T08:19:51.477Z,84.55
2023-01-21T08:22:18.381Z,84.73
2023-01-21T08:24:45.098Z,84.40
2023-01-21T08:27:14.772Z,84.50
2023-01-21T08:29:42.449Z,84.68
2023-01-21T08:32:15.038Z,84.40
2023-01-21T08:34:41.849Z,84.57
2023-01-21T08:37:08.660Z,84.49
2023-01-21T08:39:35.354Z,84.67
2023-01-21T08:42:01.992Z,84.47
2023-01-21T08:44:28.769Z,84.62
2023-01-21T08:46:56.567Z,84.48
2023-01-21T08:49:24.345Z,84.17
2023-01-21T08:51:51.224Z,84.24
2023-01-21T08:54:17.943Z,84.20
2023-01-21T08:56:44.636Z,84.26
2023-01-21T08:59:11.479Z,84.18
2023-01-21T09:01:41.161Z,84.38
2023-01-21T09:04:10.737Z,84.19
2023-01-21T09:06:37.505Z,84.17
2023-01-21T09:09:04.343Z,84.17
2023-01-21T09:11:31.133Z,84.03
2023-01-21T09:14:03.374Z,84.12
2023-01-21T09:16:32.082Z,83.88
2023-01-21T09:18:59.849Z,83.82
2023-01-21T09:21:30.003Z,83.52
2023-01-21T09:23:56.878Z,83.74
2023-01-21T09:26:24.544Z,83.56
2023-01-21T09:28:56.081Z,83.33
2023-01-21T09:31:25.606Z,83.20
2023-01-21T09:33:55.721Z,83.34
2023-01-21T09:36:25.463Z,83.03
2023-01-21T09:38:52.687Z,82.76
2023-01-21T09:41:38.807Z,82.85
2023-01-21T09:44:26.972Z,82.57
2023-01-21T09:46:56.585Z,82.48
2023-01-21T09:49:32.736Z,82.48
2023-01-21T09:52:18.319Z,82.11
2023-01-21T09:54:45.069Z,82.07
2023-01-21T09:57:23.865Z,82.16
2023-01-21T10:00:09.403Z,82.03
2023-01-21T10:03:11.285Z,81.81
2023-01-21T10:05:44.033Z,81.63
2023-01-21T10:08:33.969Z,81.89
2023-01-21T10:11:22.159Z,81.76
2023-01-21T10:14:00.727Z,81.64
2023-01-21T10:16:39.730Z,81.58
2023-01-21T10:19:08.500Z,81.38
2023-01-21T10:21:38.160Z,81.23
2023-01-21T10:24:11.198Z,81.41
2023-01-21T10:26:38.111Z,81.24
2023-01-21T10:29:18.254Z,81.13
2023-01-21T10:32:05.457Z,81.48
2023-01-21T10:34:35.813Z,81.41
2023-01-21T10:37:39.313Z,81.24
2023-01-21T10:40:17.396Z,81.23
2023-01-21T10:43:03.786Z,81.38
2023-01-21T10:45:47.353Z,81.41
2023-01-21T10:48:19.985Z,81.39
2023-01-21T10:51:06.112Z,81.60
2023-01-21T10:53:42.635Z,81.30
2023-01-21T10:56:29.218Z,81.54
2023-01-21T10:59:00.464Z,81.42
2023-01-21T11:01:34.442Z,81.61
2023-01-21T11:04:06.308Z,81.46
2023-01-21T11:06:33.701Z,81.58
2023-01-21T11:09:03.141Z,81.34
2023-01-21T11:11:32.770Z,81.16
2023-01-21T11:13:59.794Z,81.08
2023-01-21T11:16:48.940Z,81.18
2023-01-21T11:19:23.773Z,81.13
2023-01-21T11:22:00.931Z,80.78
2023-01-21T11:24:28.365Z,80.26
2023-01-21T11:26:59.277Z,80.17
2023-01-21T11:29:39.531Z,80.09
2023-01-21T11:32:21.665Z,79.41
2023-01-21T11:34:50.714Z,79.05
2023-01-21T11:37:26.199Z,78.57
2023-01-21T11:39:58.323Z,78.25
2023-01-21T11:42:25.881Z,77.89
2023-01-21T11:44:56.099Z,77.60
2023-01-21T11:47:49.808Z,77.57
2023-01-21T11:50:28.614Z,77.17
2023-01-21T11:53:12.380Z,76.99
2023-01-21T11:55:45.824Z,76.82
2023-01-21T11:58:22.761Z,76.56
2023-01-21T12:00:51.397Z,76.36
2023-01-21T12:03:20.785Z,76.24
2023-01-21T12:05:52.391Z,76.30
2023-01-21T12:08:24.936Z,76.23
2023-01-21T12:10:53.499Z,76.18
2023-01-21T12:13:26.194Z,76.30
2023-01-21T12:16:32.511Z,75.81
2023-01-21T12:19:08.386Z,75.80
2023-01-21T12:22:03.309Z,75.91
2023-01-21T12:24:33.161Z,75.93
2023-01-21T12:27:15.192Z,75.81
2023-01-21T12:30:03.373Z,75.70
2023-01-21T12:32:40.947Z,76.04
2023-01-21T12:35:17.841Z,75.64
2023-01-21T12:37:56.207Z,75.64
2023-01-21T12:40:30.664Z,75.48
2023-01-21T12:43:00.684Z,75.48
2023-01-21T12:45:41.105Z,75.77
2023-01-21T12:48:32.451Z,75.59
2023-01-21T12:51:05.497Z,75.67
2023-01-21T12:53:50.947Z,75.36
2023-01-21T12:56:46.035Z,74.86
2023-01-21T12:59:39.144Z,74.84
2023-01-21T13:02:37.777Z,75.20
2023-01-21T13:05:35.029Z,75.08
2023-01-21T13:08:30.392Z,74.99
2023-01-21T13:11:11.959Z,74.97
2023-01-21T13:13:43.065Z,75.07
2023-01-21T13:16:10.274Z,74.82
2023-01-21T13:18:39.525Z,74.93
2023-01-21T13:21:31.406Z,74.91
2023-01-21T13:24:09.930Z,74.86
2023-01-21T13:26:46.271Z,74.91
2023-01-21T13:29:22.858Z,74.97
2023-01-21T13:32:14.069Z,75.05
2023-01-21T13:35:01.651Z,75.16
2023-01-21T13:37:50.162Z,74.76
2023-01-21T13:40:41.347Z,74.72
2023-01-21T13:43:33.688Z,74.71
2023-01-21T13:46:28.255Z,74.79
2023-01-21T13:49:14.359Z,74.51
2023-01-21T13:51:44.277Z,74.59
2023-01-21T13:54:35.884Z,74.93
2023-01-21T13:57:42.295Z,75.04
2023-01-21T14:00:16.936Z,74.91
2023-01-21T14:02:50.949Z,74.90
2023-01-21T14:05:30.707Z,74.71
2023-01-21T14:08:01.893Z,74.90
2023-01-21T14:10:33.266Z,74.73
2023-01-21T14:13:27.125Z,74.69
2023-01-21T14:16:20.450Z,74.40
2023-01-21T14:19:09.085Z,74.37
2023-01-21T14:22:21.481Z,74.39
2023-01-21T14:25:08.307Z,73.74
2023-01-21T14:27:49.717Z,73.81
2023-01-21T14:30:25.466Z,73.69
2023-01-21T14:33:00.532Z,73.32
2023-01-21T14:35:48.175Z,73.22
2023-01-21T14:38:21.678Z,72.92
2023-01-21T14:40:50.313Z,72.69
2023-01-21T14:43:32.297Z,72.84
2023-01-21T14:46:01.008Z,72.60
2023-01-21T14:48:34.428Z,72.48
2023-01-21T14:51:07.508Z,72.48
2023-01-21T14:53:46.471Z,72.20
2023-01-21T14:56:27.887Z,72.44
2023-01-21T14:59:03.847Z,72.62
2023-01-21T15:01:39.453Z,72.38
2023-01-21T15:04:25.613Z,72.31
2023-01-21T15:06:56.055Z,72.63
2023-01-21T15:09:29.574Z,72.54
2023-01-21T15:12:02.298Z,72.74
2023-01-21T15:14:31.204Z,72.86
2023-01-21T15:16:58.026Z,72.89
2023-01-21T15:19:30.269Z,73.09
2023-01-21T15:22:00.857Z,73.29
2023-01-21T15:24:39.177Z,73.67
2023-01-21T15:27:15.327Z,74.01
2023-01-21T15:29:54.742Z,75.06
2023-01-21T15:32:31.999Z,76.02
2023-01-21T15:35:05.552Z,76.36
2023-01-21T15:37:36.172Z,76.95
2023-01-21T15:40:14.916Z,77.50
2023-01-21T15:42:55.265Z,78.44
2023-01-21T15:45:23.832Z,78.58
2023-01-21T15:47:54.299Z,79.18
2023-01-21T15:50:22.324Z,79.79
2023-01-21T15:53:02.032Z,80.17
2023-01-21T15:55:35.609Z,80.76
2023-01-21T15:58:22.377Z,80.93
2023-01-21T16:04:26.453Z,81.84
2023-01-21T16:07:12.649Z,82.27
2023-01-21T16:10:17.144Z,82.44
2023-01-21T16:13:20.060Z,82.86
2023-01-21T16:16:08.624Z,83.13
2023-01-21T16:18:55.221Z,83.53
2023-01-21T16:21:30.261Z,83.71
2023-01-21T16:24:07.215Z,84.10
2023-01-21T16:26:41.567Z,84.51
2023-01-21T16:29:19.060Z,84.75
2023-01-21T16:32:00.094Z,84.53
2023-01-21T16:34:41.486Z,84.91
2023-01-21T16:37:26.243Z,85.28
2023-01-21T16:40:25.175Z,85.13
2023-01-21T16:43:15.965Z,85.44
2023-01-21T16:46:06.751Z,85.84
2023-01-21T16:48:39.657Z,85.89
2023-01-21T16:51:16.019Z,86.19
2023-01-21T16:53:55.868Z,86.17
2023-01-21T16:56:40.689Z,86.20
2023-01-21T16:59:37.673Z,86.59
2023-01-21T17:02:29.920Z,86.29
2023-01-21T17:05:05.463Z,86.46
2023-01-21T17:08:11.575Z,86.46
2023-01-21T17:11:20.440Z,86.60
2023-01-21T17:13:56.098Z,86.71
2023-01-21T17:16:34.941Z,86.75
2023-01-21T17:19:41.672Z,87.03
2023-01-21T17:25:24.188Z,87.16
2023-01-21T17:28:01.078Z,87.27
2023-01-21T17:30:32.296Z,87.49
2023-01-21T17:33:00.458Z,87.56
2023-01-21T17:35:32.102Z,87.70
2023-01-21T17:38:03.123Z,87.67
2023-01-21T17:41:03.699Z,87.77
2023-01-21T17:43:33.029Z,88.03
2023-01-21T17:46:31.135Z,88.19
2023-01-21T17:49:11.901Z,88.42
2023-01-21T17:51:48.236Z,88.57
2023-01-21T17:54:34.535Z,88.62
2023-01-21T17:57:09.046Z,88.74
2023-01-21T17:59:41.431Z,88.58
2023-01-21T18:02:17.863Z,88.93
2023-01-21T18:04:49.758Z,89.16
2023-01-21T18:07:25.559Z,88.90
2023-01-21T18:09:59.966Z,88.89
2023-01-21T18:12:31.856Z,89.29
2023-01-21T18:15:13.384Z,89.30
2023-01-21T18:18:01.681Z,89.18
2023-01-21T18:20:50.259Z,89.23
2023-01-21T18:23:18.549Z,89.57
2023-01-21T18:25:54.425Z,89.63
2023-01-21T18:28:24.423Z,89.67
2023-01-21T18:30:52.469Z,89.66
2023-01-21T18:33:19.668Z,89.68
2023-01-21T18:35:51.065Z,89.85
2023-01-21T18:38:33.397Z,89.87
2023-01-21T18:41:10.747Z,89.84
2023-01-21T18:44:02.468Z,90.16
2023-01-21T18:46:42.644Z,90.02
2023-01-21T18:49:24.085Z,90.22
2023-01-21T18:52:01.262Z,90.20
2023-01-21T18:54:46.537Z,90.11
2023-01-21T18:57:30.418Z,90.53
2023-01-21T19:00:01.771Z,90.32
2023-01-21T19:02:33.318Z,90.37
2023-01-21T19:05:05.322Z,90.38
2023-01-21T19:07:35.883Z,90.63
2023-01-21T19:10:12.566Z,90.65
2023-01-21T19:12:43.853Z,90.81
2023-01-21T19:15:19.812Z,90.86
2023-01-21T19:18:04.909Z,90.76
2023-01-21T19:20:48.152Z,90.99
2023-01-21T19:23:20.540Z,90.97
2023-01-21T19:25:58.670Z,90.88
2023-01-21T19:28:26.244Z,90.84
2023-01-21T19:31:10.856Z,91.05
2023-01-21T19:33:43.139Z,91.13
2023-01-21T19:36:19.239Z,91.02
2023-01-21T19:38:53.622Z,91.08
2023-01-21T19:41:21.377Z,91.17
2023-01-21T19:44:06.327Z,91.07
2023-01-21T19:46:53.829Z,91.14
2023-01-21T19:49:27.817Z,91.21
2023-01-21T19:52:20.348Z,91.22
2023-01-21T19:54:50.509Z,91.06
2023-01-21T19:57:23.230Z,91.13
2023-01-21T19:59:54.154Z,91.40
2023-01-21T20:02:29.162Z,91.49
2023-01-21T20:05:03.231Z,91.39
2023-01-21T20:07:45.112Z,91.19
2023-01-21T20:10:36.005Z,91.42
2023-01-21T20:16:43.326Z,91.44
2023-01-21T20:19:21.633Z,91.52
2023-01-21T20:22:03.013Z,91.30
2023-01-21T20:24:40.502Z,91.40
2023-01-21T20:27:16.880Z,91.35
2023-01-21T20:29:55.541Z,91.56
2023-01-21T20:32:30.338Z,91.43
2023-01-21T20:34:57.435Z,91.70
2023-01-21T20:37:25.270Z,91.55
2023-01-21T20:39:52.288Z,91.46
2023-01-21T20:42:19.526Z,91.66
2023-01-21T20:44:46.440Z,91.43
2023-01-21T20:47:13.223Z,91.51
2023-01-21T20:49:40.341Z,91.60
2023-01-21T20:52:09.537Z,91.77
2023-01-21T20:54:36.534Z,91.47
2023-01-21T20:57:03.924Z,91.59
2023-01-21T20:59:30.839Z,91.61
2023-01-21T21:01:57.577Z,91.56
2023-01-21T21:04:31.003Z,91.45
2023-01-21T21:06:57.750Z,91.58
2023-01-21T21:09:24.502Z,91.60
2023-01-21T21:12:21.379Z,91.49
2023-01-21T21:14:46.216Z,91.65
2023-01-21T21:17:13.409Z,91.67
2023-01-21T21:19:40.364Z,91.65
2023-01-21T21:22:07.188Z,91.49
2023-01-21T21:24:34.372Z,91.73
2023-01-21T21:27:03.681Z,91.56
2023-01-21T21:29:30.631Z,91.56
2023-01-21T21:32:05.927Z,91.61
2023-01-21T21:34:37.947Z,91.73
2023-01-21T21:37:07.878Z,91.86
2023-01-21T21:39:45.299Z,91.95
2023-01-21T21:42:40.218Z,91.91
2023-01-21T21:45:07.434Z,91.75
2023-01-21T21:47:53.262Z,91.77
2023-01-21T21:50:19.974Z,91.99
2023-01-21T21:52:47.072Z,91.91
2023-01-21T21:55:15.632Z,91.76
2023-01-21T21:57:42.805Z,91.63
2023-01-21T22:00:10.299Z,91.78
2023-01-21T22:02:37.087Z,91.88
2023-01-21T22:05:05.388Z,91.78
2023-01-21T22:07:32.479Z,91.97
2023-01-21T22:10:00.947Z,91.87
2023-01-21T22:12:29.729Z,91.94
2023-01-21T22:14:56.510Z,91.84
2023-01-21T22:17:23.253Z,91.84
2023-01-21T22:19:49.956Z,91.72
2023-01-21T22:22:19.585Z,91.93
2023-01-21T22:24:46.508Z,91.94
2023-01-21T22:27:13.281Z,92.13
2023-01-21T22:29:41.551Z,92.08
2023-01-21T22:32:08.248Z,92.07
2023-01-21T22:34:34.935Z,91.88
2023-01-21T22:37:01.734Z,92.06
2023-01-21T22:39:28.388Z,91.98
2023-01-21T22:42:00.373Z,91.91
2023-01-21T22:44:27.166Z,91.84
2023-01-21T22:46:53.867Z,92.04
2023-01-21T22:49:20.614Z,91.95
2023-01-21T22:51:47.337Z,91.96
2023-01-21T22:54:14.224Z,92.03
2023-01-21T22:56:52.300Z,92.08
2023-01-21T22:59:20.030Z,91.84
2023-01-21T23:01:48.862Z,91.96
2023-01-21T23:04:17.453Z,92.09
2023-01-21T23:06:44.994Z,92.06
2023-01-21T23:09:24.239Z,92.16
2023-01-21T23:11:53.303Z,92.04
2023-01-21T23:14:20.339Z,92.08
2023-01-21T23:16:47.129Z,91.92
2023-01-21T23:19:13.839Z,91.84
2023-01-21T23:21:40.703Z,92.03
2023-01-21T23:24:07.859Z,91.90
2023-01-21T23:26:35.998Z,92.08
2023-01-21T23:29:04.225Z,91.96
2023-01-21T23:31:31.090Z,92.08
2023-01-21T23:33:58.851Z,92.07
2023-01-21T23:36:25.614Z,92.06
2023-01-21T23:38:52.401Z,92.23
2023-01-21T23:41:21.150Z,92.06
2023-01-21T23:43:48.418Z,92.08
2023-01-21T23:46:18.415Z,92.06
2023-01-21T23:48:45.415Z,91.92
2023-01-21T23:51:14.588Z,92.32
2023-01-21T23:53:41.642Z,92.05
2023-01-21T23:56:12.410Z,92.14
2023-01-21T23:58:39.196Z,92.21
